TimeEST,TemperatureF,Dew PointF,Humidity,Sea Level PressureIn,VisibilityMPH,Wind Direction,Wind SpeedMPH,Gust SpeedMPH,PrecipitationIn,Events,Conditions,WindDirDegrees,DateUTC
12:53 AM,68.0,55.0,63,30.19,10.0,ESE,15.0,-,N/A,,Mostly Cloudy,120,2013-02-19 05:53:00
1:53 AM,69.1,51.1,53,30.18,10.0,SE,10.4,-,N/A,,Mostly Cloudy,140,2013-02-19 06:53:00
2:53 AM,68.0,52.0,56,30.17,10.0,SSE,8.1,-,N/A,,Mostly Cloudy,150,2013-02-19 07:53:00
3:53 AM,66.9,51.1,57,30.16,10.0,SSE,10.4,-,N/A,,Scattered Clouds,150,2013-02-19 08:53:00
4:53 AM,66.0,51.1,59,30.15,10.0,South,5.8,-,N/A,,Partly Cloudy,170,2013-02-19 09:53:00
5:53 AM,64.9,51.1,61,30.16,10.0,South,4.6,-,N/A,,Partly Cloudy,180,2013-02-19 10:53:00
6:53 AM,61.0,51.1,70,30.18,10.0,Calm,Calm,-,N/A,,Partly Cloudy,0,2013-02-19 11:53:00
7:53 AM,62.1,54.0,75,30.19,10.0,NW,3.5,-,N/A,,Partly Cloudy,310,2013-02-19 12:53:00
8:53 AM,72.0,55.9,57,30.18,10.0,SSE,12.7,17.3,N/A,,Partly Cloudy,150,2013-02-19 13:53:00
9:53 AM,73.9,57.0,55,30.19,10.0,SE,17.3,-,N/A,,Scattered Clouds,140,2013-02-19 14:53:00
10:53 AM,75.9,57.9,54,30.19,10.0,South,18.4,24.2,N/A,,Mostly Cloudy,170,2013-02-19 15:53:00
11:53 AM,75.0,57.9,55,30.18,10.0,SSE,12.7,-,N/A,,Mostly Cloudy,160,2013-02-19 16:53:00
1:53 PM,75.9,60.1,58,30.13,10.0,SSE,12.7,21.9,N/A,,Mostly Cloudy,160,2013-02-19 18:53:00
2:53 PM,75.9,62.1,62,30.11,10.0,SSE,15.0,-,N/A,,Mostly Cloudy,150,2013-02-19 19:53:00
3:53 PM,75.9,62.1,62,30.10,10.0,SSE,13.8,24.2,N/A,,Scattered Clouds,160,2013-02-19 20:53:00
4:53 PM,73.9,62.1,66,30.09,10.0,SSE,16.1,23.0,N/A,,Mostly Cloudy,150,2013-02-19 21:53:00
5:53 PM,73.0,63.0,71,30.09,10.0,SSE,12.7,-,N/A,,Mostly Cloudy,160,2013-02-19 22:53:00
7:53 PM,71.1,64.9,81,30.12,10.0,South,5.8,-,0.08,,Scattered Clouds,190,2013-02-20 00:53:00
8:53 PM,70.0,64.9,84,30.11,10.0,South,4.6,-,N/A,,Scattered Clouds,170,2013-02-20 01:53:00
9:53 PM,70.0,64.9,84,30.12,10.0,Calm,Calm,-,N/A,,Mostly Cloudy,0,2013-02-20 02:53:00
10:53 PM,69.1,64.9,87,30.12,10.0,West,4.6,-,N/A,,Overcast,280,2013-02-20 03:53:00
11:53 PM,68.0,64.9,90,30.12,10.0,West,9.2,-,0.00,Rain,Light Rain,270,2013-02-20 04:53:00